Time;durP1;ratioP1;P1;durP2;ratioP2;P2;SDS_P1;SDS_P2;PMS_P1;PMS_P2;Temp;Humidity;BMP_temperature;BMP_pressure;BME280_temperature;BME280_humidity;BME280_pressure;Samples;Min_cycle;Max_cycle;Signal;HPM_P1;HPM_P2
2022/09/26 00:01:41;;;;;;;23.75;5.70;;;10.40;99.90;;;10.32;100.00;100161.06;4963115;28;20220;-64
2022/09/26 00:04:21;;;;;;;18.85;4.10;;;10.40;99.90;;;10.32;100.00;100159.28;4985218;28;20224;-64
2022/09/26 00:06:55;;;;;;;17.10;4.25;;;10.40;99.90;;;10.24;100.00;100156.63;4962951;28;20212;-64
2022/09/26 00:09:26;;;;;;;22.75;5.20;;;10.40;99.90;;;10.21;100.00;100159.22;4983648;28;20232;-64
2022/09/26 00:11:54;;;;;;;18.75;4.07;;;10.40;99.90;;;10.09;100.00;100158.25;4973720;28;20212;-64
2022/09/26 00:14:26;;;;;;;21.55;4.70;;;10.40;99.90;;;10.04;100.00;100159.97;4985550;28;20232;-64
2022/09/26 00:16:55;;;;;;;22.27;5.25;;;10.30;99.90;;;9.94;100.00;100154.63;4976449;28;20205;-64
2022/09/26 00:19:23;;;;;;;18.88;4.10;;;10.30;99.90;;;9.86;100.00;100153.69;4965123;28;20212;-64
2022/09/26 00:21:51;;;;;;;23.65;5.78;;;10.70;99.90;;;9.87;100.00;100159.84;4965045;28;20208;-64
2022/09/26 00:24:19;;;;;;;20.25;4.55;;;10.10;99.90;;;9.85;100.00;100157.19;4968251;28;20239;-64
2022/09/26 00:26:47;;;;;;;22.30;4.68;;;10.00;99.90;;;9.83;100.00;100161.59;4988033;28;20212;-64
2022/09/26 00:29:16;;;;;;;23.85;5.57;;;10.00;99.90;;;9.81;100.00;100170.38;4960866;28;20223;-64
2022/09/26 00:31:46;;;;;;;23.83;5.63;;;10.00;99.90;;;9.90;100.00;100179.25;4976484;28;20204;-64
2022/09/26 00:34:17;;;;;;;25.65;5.72;;;10.00;99.90;;;10.01;100.00;100181.97;4977161;28;20224;-64
2022/09/26 00:36:45;;;;;;;26.52;6.15;;;10.00;99.90;;;10.04;100.00;100181.09;4962967;28;20596;-64
2022/09/26 00:39:15;;;;;;;24.45;5.75;;;10.10;99.90;;;9.85;100.00;100167.75;4956653;28;20208;-64
2022/09/26 00:41:44;;;;;;;25.95;6.28;;;10.10;99.90;;;9.78;100.00;100160.66;4955841;28;20232;-64
2022/09/26 00:44:43;;;;;;;22.02;5.00;;;10.00;99.90;;;9.73;100.00;100158.84;4975095;28;20239;-64
2022/09/26 00:47:36;;;;;;;25.73;6.22;;;9.90;99.90;;;9.81;100.00;100165.09;4990360;28;20212;-64
2022/09/26 00:50:17;;;;;;;23.35;5.53;;;9.90;99.90;;;9.86;100.00;100161.59;4973125;28;20846;-64
2022/09/26 00:52:59;;;;;;;24.88;5.78;;;10.00;99.90;;;10.21;100.00;100180.38;4954771;28;20220;-64
2022/09/26 00:55:33;;;;;;;24.20;5.38;;;10.10;99.90;;;10.33;100.00;100170.75;4983231;28;20223;-64
2022/09/26 00:58:17;;;;;;;24.77;5.40;;;10.20;99.90;;;10.54;100.00;100177.06;4962687;28;20196;-64
2022/09/26 01:00:48;;;;;;;28.70;6.85;;;10.30;99.90;;;10.60;100.00;100170.94;4962419;28;20226;-64
2022/09/26 01:03:18;;;;;;;14.93;3.35;;;10.40;99.90;;;10.81;100.00;100173.66;4966893;28;20229;-64
2022/09/26 01:05:47;;;;;;;20.48;4.72;;;10.50;99.90;;;10.69;100.00;100147.16;4965901;28;20204;-64
2022/09/26 01:08:22;;;;;;;23.73;5.38;;;10.60;99.90;;;10.69;100.00;100146.28;4962921;28;20221;-64
2022/09/26 01:10:50;;;;;;;23.10;5.53;;;10.60;99.90;;;10.69;100.00;100144.53;4965172;28;20207;-64
2022/09/26 01:13:20;;;;;;;16.95;3.97;;;10.60;99.90;;;10.76;100.00;100140.13;4967591;28;20238;-64
2022/09/26 01:15:48;;;;;;;25.30;5.65;;;10.60;99.90;;;10.73;100.00;100127.78;4974717;28;20215;-64
2022/09/26 01:18:17;;;;;;;18.42;4.85;;;10.60;99.90;;;10.77;100.00;100132.22;4951939;28;20208;-64
2022/09/26 01:20:58;;;;;;;26.27;6.22;;;10.60;99.90;;;10.79;100.00;100127.81;4962865;28;20227;-64
2022/09/26 01:24:13;;;;;;;24.50;5.45;;;10.60;99.90;;;10.78;100.00;100118.09;4955072;28;20232;-64
2022/09/26 01:27:14;;;;;;;20.73;4.93;;;10.60;99.90;;;11.01;100.00;100131.41;4979189;28;20204;-64
2022/09/26 01:30:50;;;;;;;25.15;5.78;;;10.70;99.90;;;10.88;100.00;100117.25;4980750;28;20223;-64
2022/09/26 01:33:40;;;;;;;22.75;5.20;;;10.80;99.90;;;10.62;100.00;100094.25;4908735;29;20233;-64
2022/09/26 01:36:17;;;;;;;20.33;4.55;;;10.60;99.90;;;10.50;100.00;100103.91;4910724;29;20256;-64
2022/09/26 01:39:07;;;;;;;26.80;5.97;;;10.60;99.90;;;10.40;100.00;100104.75;4978842;28;20215;-64
2022/09/26 01:42:01;;;;;;;24.40;5.38;;;10.60;99.90;;;10.36;100.00;100112.63;4971002;28;20208;-64
2022/09/26 01:44:57;;;;;;;20.73;4.65;;;10.50;99.90;;;10.36;100.00;100117.91;4981039;28;20248;-64
2022/09/26 01:47:55;;;;;;;28.70;6.57;;;10.40;99.90;;;10.39;100.00;100118.81;4970975;28;20200;-64
2022/09/26 01:50:33;;;;;;;30.33;7.43;;;10.40;99.90;;;10.35;100.00;100113.50;4945680;28;20230;-64
2022/09/26 01:53:16;;;;;;;24.95;6.00;;;10.40;99.90;;;10.27;100.00;100122.28;4985822;28;20235;-64
2022/09/26 01:55:54;;;;;;;30.35;6.78;;;10.40;99.90;;;10.23;100.00;100114.31;4988097;28;20200;-64
2022/09/26 01:58:51;;;;;;;21.70;4.97;;;10.30;99.90;;;10.00;100.00;100100.06;4943726;28;20774;-64
2022/09/26 02:01:24;;;;;;;18.00;4.00;;;10.30;99.90;;;9.93;100.00;100102.66;4970712;28;20212;-64
2022/09/26 02:03:59;;;;;;;16.75;3.92;;;10.20;99.90;;;9.80;100.00;100100.81;4952043;28;20741;-64
2022/09/26 02:06:36;;;;;;;21.35;4.53;;;10.10;99.90;;;9.83;100.00;100102.59;4992913;28;20218;-64
2022/09/26 02:09:27;;;;;;;16.33;3.70;;;10.00;99.90;;;9.74;100.00;100103.41;4988779;28;20239;-64
2022/09/26 02:12:00;;;;;;;20.23;4.35;;;9.90;99.90;;;9.76;100.00;100106.97;5001809;28;20212;-64
2022/09/26 02:14:34;;;;;;;24.63;5.82;;;9.90;99.90;;;9.62;100.00;100108.63;4964893;28;20239;-66
2022/09/26 02:17:14;;;;;;;25.35;5.70;;;9.80;99.90;;;9.60;100.00;100113.88;4987144;28;20211;-65
2022/09/26 02:19:42;;;;;;;21.92;4.80;;;9.80;99.90;;;9.54;100.00;100107.66;4985434;28;20226;-64
2022/09/26 02:22:10;;;;;;;23.85;5.15;;;9.80;99.90;;;9.42;100.00;100105.81;4981079;28;20204;-64
2022/09/26 02:24:39;;;;;;;20.70;4.72;;;9.70;99.90;;;9.58;100.00;100110.34;4947378;28;20239;-64
2022/09/26 02:27:07;;;;;;;18.92;4.13;;;9.70;99.90;;;9.54;100.00;100099.75;4971866;28;20217;-64
2022/09/26 02:29:35;;;;;;;16.40;3.88;;;9.70;99.90;;;9.70;100.00;100096.34;4971275;28;20234;-64
2022/09/26 02:32:14;;;;;;;17.52;3.72;;;9.70;99.90;;;9.82;100.00;100080.59;4965884;28;20205;-64
2022/09/26 02:34:45;;;;;;;24.27;5.53;;;9.80;99.90;;;10.02;100.00;100075.41;4982816;28;20227;-64
2022/09/26 02:37:19;;;;;;;22.45;5.47;;;9.90;99.90;;;10.05;100.00;100062.22;4994577;28;20223;-64
2022/09/26 02:39:51;;;;;;;26.08;5.75;;;9.90;99.90;;;9.95;100.00;100042.81;4963369;28;20219;-64
2022/09/26 02:42:46;;;;;;;19.25;4.45;;;9.90;99.90;;;9.89;100.00;100034.84;4989802;28;20208;-64
2022/09/26 02:45:45;;;;;;;23.40;5.18;;;9.90;99.90;;;9.89;100.00;100024.28;4981793;28;20235;-64
2022/09/26 02:48:30;;;;;;;31.15;7.13;;;9.90;99.90;;;9.79;100.00;100011.03;4949820;28;20215;-64
2022/09/26 02:51:23;;;;;;;25.40;5.30;;;9.80;99.90;;;9.66;100.00;99998.63;4988305;28;20699;-64
2022/09/26 02:54:40;;;;;;;27.42;5.90;;;9.80;99.90;;;9.57;100.00;99991.53;4987245;28;20253;-64
2022/09/26 02:57:44;;;;;;;30.40;6.55;;;9.70;99.90;;;9.54;100.00;99987.13;4986101;28;20205;-64
2022/09/26 03:00:31;;;;;;;22.58;4.75;;;9.60;99.90;;;9.52;100.00;99986.22;4990054;28;20205;-64
2022/09/26 03:03:27;;;;;;;16.85;3.53;;;9.60;99.90;;;9.49;100.00;99967.75;4966402;28;20209;-64
2022/09/26 03:05:58;;;;;;;23.23;5.03;;;9.60;99.90;;;9.48;100.00;99959.81;4991421;28;20223;-64
2022/09/26 03:08:31;;;;;;;23.75;4.80;;;9.60;99.90;;;9.60;100.00;99978.34;4988348;28;20219;-64
2022/09/26 03:11:04;;;;;;;25.92;5.47;;;9.50;99.90;;;9.50;100.00;99969.50;4967651;28;20223;-64
2022/09/26 03:13:37;;;;;;;21.35;4.53;;;9.60;99.90;;;9.36;100.00;99954.47;4976615;28;20234;-64
2022/09/26 03:16:08;;;;;;;23.50;4.93;;;9.50;99.90;;;9.33;100.00;99954.44;4982995;28;20231;-64
2022/09/26 03:18:57;;;;;;;24.52;5.05;;;9.50;99.90;;;9.37;100.00;99980.84;4974294;28;20200;-64
2022/09/26 03:21:27;;;;;;;24.38;4.95;;;9.40;99.90;;;9.30;100.00;99974.66;4985574;28;20220;-64
2022/09/26 03:23:56;;;;;;;26.02;5.35;;;9.40;99.90;;;9.00;100.00;99974.41;4953050;28;20243;-64
2022/09/26 03:26:28;;;;;;;30.58;6.72;;;9.30;99.90;;;8.95;100.00;99981.41;4971702;28;20195;-64
2022/09/26 03:28:59;;;;;;;22.73;4.78;;;9.20;99.90;;;8.71;100.00;99987.34;4983780;28;20687;-64
2022/09/26 03:31:30;;;;;;;17.92;3.85;;;9.10;99.90;;;8.56;100.00;99988.06;4977178;28;20225;-64
2022/09/26 03:34:07;;;;;;;24.35;5.18;;;8.90;99.90;;;8.48;100.00;99989.75;4970758;28;20235;-64
2022/09/26 03:36:38;;;;;;;20.90;4.32;;;8.80;99.90;;;8.38;100.00;99992.28;4973771;28;20231;-64
2022/09/26 03:39:08;;;;;;;24.10;4.95;;;8.80;99.90;;;8.43;100.00;100004.63;4969861;28;20209;-64
2022/09/26 03:41:52;;;;;;;26.00;5.43;;;8.70;99.90;;;8.34;100.00;100004.53;4957058;28;20200;-64
2022/09/26 03:44:30;;;;;;;27.48;5.78;;;8.70;99.90;;;8.24;100.00;100007.88;4977038;28;20692;-64
2022/09/26 03:47:04;;;;;;;29.85;6.93;;;8.50;99.90;;;8.23;100.00;100017.53;5007556;28;20200;-64
2022/09/26 03:49:38;;;;;;;19.67;4.22;;;8.50;99.90;;;8.15;100.00;100010.41;4975273;28;20222;-64
2022/09/26 03:52:10;;;;;;;20.83;4.38;;;8.50;99.90;;;8.21;100.00;100018.41;4957479;28;20205;-64
2022/09/26 03:54:39;;;;;;;21.98;4.80;;;8.40;99.90;;;8.08;100.00;100013.84;4968659;28;20233;-64
2022/09/26 03:57:09;;;;;;;23.20;4.80;;;8.40;99.90;;;8.06;100.00;100023.47;4975607;28;20731;-64
2022/09/26 03:59:42;;;;;;;25.30;5.18;;;8.40;99.90;;;8.06;100.00;100015.56;4992914;28;20207;-64
2022/09/26 04:02:12;;;;;;;24.60;5.10;;;8.30;99.90;;;7.93;100.00;100014.53;4990871;28;20206;-64
2022/09/26 04:04:46;;;;;;;26.55;5.80;;;8.30;99.90;;;7.96;100.00;100010.19;4964034;28;20228;-65
2022/09/26 04:07:16;;;;;;;23.75;4.97;;;8.30;99.90;;;7.91;100.00;100017.16;4949895;28;20212;-65
2022/09/26 04:09:47;;;;;;;21.17;4.55;;;8.20;99.90;;;7.92;100.00;100020.66;4987583;28;20215;-65
2022/09/26 04:12:21;;;;;;;19.08;4.20;;;8.20;99.90;;;7.96;100.00;100030.38;4967727;28;20196;-65
2022/09/26 04:14:51;;;;;;;20.77;4.38;;;8.20;99.90;;;7.90;100.00;100023.28;4993300;28;20225;-65
2022/09/26 04:17:20;;;;;;;25.25;5.45;;;8.20;99.90;;;7.88;100.00;100011.84;4973567;28;20219;-65
2022/09/26 04:19:51;;;;;;;23.90;5.10;;;8.10;99.90;;;7.81;100.00;100015.25;4971732;28;20640;-65
2022/09/26 04:22:20;;;;;;;20.58;4.35;;;8.10;99.90;;;7.85;100.00;100017.06;4984253;28;20212;-65
2022/09/26 04:24:54;;;;;;;21.35;4.70;;;8.10;99.90;;;7.84;100.00;100025.84;4965496;28;20212;-65
2022/09/26 04:27:28;;;;;;;22.65;4.85;;;8.10;99.90;;;7.83;100.00;100012.66;4978920;28;20207;-65
2022/09/26 04:29:59;;;;;;;14.95;3.72;;;8.10;99.90;;;7.82;100.00;100016.16;4982883;28;20239;-66
2022/09/26 04:32:58;;;;;;;20.13;4.80;;;8.10;99.90;;;7.84;100.00;100006.53;4993249;28;20216;-66
2022/09/26 04:35:34;;;;;;;21.42;4.50;;;8.00;99.90;;;7.75;100.00;99988.81;4996642;28;20217;-66
2022/09/26 04:38:04;;;;;;;26.23;5.55;;;8.00;99.90;;;7.77;100.00;99994.09;4990174;28;20207;-66
2022/09/26 04:40:34;;;;;;;32.70;7.32;;;8.00;99.90;;;7.78;100.00;99988.88;4971417;28;20212;-66
2022/09/26 04:43:10;;;;;;;26.27;5.53;;;8.00;99.90;;;7.71;100.00;99994.91;4991379;28;20338;-66
2022/09/26 04:45:41;;;;;;;18.30;4.03;;;7.90;99.90;;;7.71;100.00;99998.44;4974160;28;20219;-66
2022/09/26 04:48:10;;;;;;;25.85;5.60;;;8.00;99.90;;;7.73;100.00;99995.81;4954693;28;20212;-65
2022/09/26 04:50:40;;;;;;;29.05;6.43;;;7.90;99.90;;;7.79;100.00;100003.78;4971260;28;20227;-66
2022/09/26 04:53:11;;;;;;;26.02;5.32;;;7.90;99.90;;;7.74;100.00;100000.22;4999930;28;20228;-65
2022/09/26 04:55:53;;;;;;;29.92;6.15;;;7.90;99.90;;;7.68;100.00;100000.13;4972515;28;20901;-65
2022/09/26 04:58:21;;;;;;;25.23;5.50;;;7.90;99.90;;;7.72;100.00;99996.69;4968052;28;20212;-66
2022/09/26 05:00:49;;;;;;;24.08;5.13;;;7.90;99.90;;;7.66;100.00;99988.69;4952425;28;20204;-65
2022/09/26 05:03:28;;;;;;;23.33;4.95;;;7.90;99.90;;;7.61;100.00;99986.00;4966068;28;20232;-65
2022/09/26 05:05:57;;;;;;;21.52;4.57;;;7.80;99.90;;;7.64;100.00;99986.06;4961024;28;20204;-65
2022/09/26 05:08:26;;;;;;;27.63;5.85;;;7.80;99.90;;;7.63;100.00;99984.28;4962246;28;20204;-65
2022/09/26 05:10:55;;;;;;;26.65;5.80;;;7.80;99.90;;;7.61;100.00;99977.22;4971380;28;20219;-65
2022/09/26 05:13:25;;;;;;;32.80;6.78;;;7.80;99.90;;;7.63;100.00;99979.03;4971997;28;20224;-65
2022/09/26 05:15:54;;;;;;;25.98;5.43;;;7.80;99.90;;;7.61;100.00;99979.84;4973483;28;20208;-65
2022/09/26 05:18:24;;;;;;;22.63;4.78;;;7.80;99.90;;;7.69;100.00;99987.00;4967217;28;20204;-65
2022/09/26 05:20:54;;;;;;;23.55;4.88;;;7.80;99.90;;;7.69;100.00;99986.13;4976245;28;20204;-65
2022/09/26 05:26:39;;;;;;;21.83;4.72;;;7.80;99.90;;;7.65;100.00;99976.41;4992792;28;20204;-65
2022/09/26 05:29:09;;;;;;;20.15;4.30;;;7.80;99.90;;;7.66;100.00;99975.53;4975399;28;20211;-65
2022/09/26 05:31:53;;;;;;;21.08;4.60;;;7.80;99.90;;;7.67;100.00;99966.78;4984403;28;20224;-65
2022/09/26 05:34:25;;;;;;;24.85;5.32;;;7.80;99.90;;;7.67;100.00;99967.66;4994859;28;20224;-65
2022/09/26 05:36:55;;;;;;;25.40;5.93;;;7.80;99.90;;;7.71;100.00;99972.09;4974727;28;20216;-65
2022/09/26 05:42:14;;;;;;;29.52;6.20;;;7.90;99.90;;;7.82;100.00;99972.28;4991464;28;20212;-66
2022/09/26 05:44:43;;;;;;;21.17;4.55;;;7.90;99.90;;;7.91;100.00;99977.66;4999472;28;20235;-65
2022/09/26 05:47:11;;;;;;;23.15;4.97;;;7.90;99.90;;;7.95;100.00;99978.56;4976224;28;20200;-65
2022/09/26 05:49:40;;;;;;;19.77;4.22;;;8.00;99.90;;;7.99;100.00;99983.91;4979581;28;20215;-65
2022/09/26 05:52:11;;;;;;;21.65;4.57;;;8.10;99.90;;;8.08;100.00;99988.41;4986707;28;20244;-65
2022/09/26 05:54:39;;;;;;;20.27;4.38;;;8.10;99.90;;;8.13;100.00;99993.72;4966796;28;20224;-65
2022/09/26 05:57:27;;;;;;;20.52;4.43;;;8.20;99.90;;;8.18;100.00;99995.53;5009050;28;20204;-65
2022/09/26 05:59:56;;;;;;;18.50;4.60;;;8.20;99.90;;;8.22;100.00;99988.56;5003050;28;20196;-66
2022/09/26 06:02:24;;;;;;;20.73;4.40;;;8.20;99.90;;;8.29;100.00;99988.63;5001313;28;20215;-65
2022/09/26 06:05:13;;;;;;;27.00;5.78;;;8.30;99.90;;;8.44;100.00;99989.69;4998211;28;20235;-65
2022/09/26 06:07:44;;;;;;;22.42;4.85;;;8.40;99.90;;;8.51;100.00;99988.91;5010182;28;20227;-66
2022/09/26 06:10:24;;;;;;;24.05;5.13;;;8.50;99.90;;;8.57;100.00;99984.56;4984516;28;20220;-65
2022/09/26 06:13:04;;;;;;;20.77;4.38;;;8.50;99.90;;;8.72;100.00;99993.50;4960883;28;20575;-65
2022/09/26 06:15:41;;;;;;;22.13;4.72;;;8.60;99.90;;;8.85;100.00;99995.38;4984993;28;20208;-66
2022/09/26 06:18:09;;;;;;;23.48;5.05;;;8.80;99.90;;;8.91;100.00;99988.41;4983283;28;20196;-65
2022/09/26 06:20:38;;;;;;;16.50;4.03;;;8.80;99.90;;;9.04;100.00;99993.78;4971166;28;20210;-66
2022/09/26 06:23:07;;;;;;;23.80;5.18;;;8.90;99.90;;;9.11;100.00;99985.06;5016223;28;20251;-65
2022/09/26 06:25:37;;;;;;;20.25;4.43;;;9.00;99.90;;;9.17;100.00;99980.72;4978669;28;20238;-66
2022/09/26 06:28:06;;;;;;;19.13;4.10;;;9.10;99.90;;;9.30;100.00;99990.50;4987628;28;20212;-65
2022/09/26 06:30:36;;;;;;;22.48;4.72;;;9.20;99.90;;;9.36;100.00;99986.13;4967504;28;20219;-65
2022/09/26 06:33:13;;;;;;;17.60;3.83;;;9.30;99.90;;;9.40;100.00;99985.28;4987737;28;20242;-65
2022/09/26 06:36:13;;;;;;;20.77;4.47;;;9.30;99.90;;;9.52;100.00;99988.00;4973979;28;20207;-65
2022/09/26 06:38:41;;;;;;;21.48;4.63;;;9.40;99.90;;;9.54;100.00;99970.41;4971768;28;20208;-65
2022/09/26 06:41:15;;;;;;;16.02;3.55;;;9.50;99.90;;;9.66;100.00;99964.31;4968593;28;20204;-66
2022/09/26 06:43:44;;;;;;;22.17;4.65;;;9.50;99.90;;;9.80;100.00;99973.19;4968007;28;20232;-65
2022/09/26 06:46:38;;;;;;;21.65;4.55;;;9.60;99.90;;;10.13;100.00;99970.66;4959865;28;20196;-65
2022/09/26 06:49:13;;;;;;;25.73;5.38;;;9.80;99.90;;;10.29;100.00;99953.13;4985918;28;20206;-65
2022/09/26 06:51:48;;;;;;;22.25;4.85;;;9.90;99.90;;;10.52;100.00;99932.94;4964004;28;20232;-65
2022/09/26 06:54:17;;;;;;;21.45;4.68;;;10.10;99.90;;;10.67;100.00;99925.91;4964564;28;20225;-66
2022/09/26 06:56:45;;;;;;;22.08;4.65;;;10.30;99.90;;;10.70;100.00;99902.09;4992471;28;20211;-65
2022/09/26 06:59:15;;;;;;;12.57;3.25;;;10.40;99.90;;;10.71;100.00;99885.34;4982073;28;20201;-65
2022/09/26 07:01:53;;;;;;;20.20;5.20;;;10.40;99.90;;;10.73;100.00;99880.94;4982949;28;20218;-65
2022/09/26 07:04:40;;;;;;;17.45;4.43;;;10.50;99.90;;;10.79;100.00;99878.31;4983688;28;20224;-65
2022/09/26 07:07:29;;;;;;;34.22;7.47;;;10.60;99.90;;;10.81;100.00;99871.25;4999870;28;20208;-66
2022/09/26 07:09:58;;;;;;;29.85;6.55;;;10.60;99.90;;;11.01;100.00;99884.44;4973377;28;20212;-66
2022/09/26 07:12:39;;;;;;;23.90;4.97;;;10.70;99.90;;;10.95;100.00;99873.88;4977907;28;20232;-65
2022/09/26 07:15:08;;;;;;;23.65;5.20;;;10.80;99.90;;;11.06;100.00;99877.38;4969807;28;20247;-65
2022/09/26 07:17:37;;;;;;;21.98;4.85;;;10.80;99.90;;;11.16;100.00;99880.00;4960846;28;20212;-65
2022/09/26 07:20:18;;;;;;;20.35;4.32;;;10.90;99.90;;;11.25;100.00;99884.41;4975500;28;20201;-65
2022/09/26 07:23:07;;;;;;;22.83;4.85;;;11.00;99.90;;;11.44;100.00;99879.94;4981035;28;20224;-65
2022/09/26 07:25:38;;;;;;;26.85;5.70;;;11.10;99.90;;;11.46;100.00;99876.38;4965727;28;20203;-66
2022/09/26 07:28:08;;;;;;;26.75;6.07;;;11.20;99.90;;;11.43;100.00;99886.09;4960331;28;20211;-65
2022/09/26 07:30:50;;;;;;;16.55;3.65;;;11.20;99.90;;;11.33;100.00;99882.59;4987916;28;20212;-65
2022/09/26 07:33:47;;;;;;;26.90;6.20;;;11.20;99.90;;;11.34;100.00;99904.66;4926634;28;20237;-65
2022/09/26 07:36:17;;;;;;;25.63;5.43;;;11.20;99.90;;;11.40;100.00;99913.47;4972158;28;20227;-65
2022/09/26 07:38:48;;;;;;;26.05;6.18;;;11.30;99.90;;;11.41;100.00;99923.19;4959476;28;20216;-66
2022/09/26 07:41:18;;;;;;;22.58;5.00;;;11.30;99.90;;;11.32;100.00;99914.38;4974269;28;20208;-66
2022/09/26 07:43:46;;;;;;;23.75;5.20;;;11.20;99.90;;;11.36;100.00;99919.66;4963573;28;20247;-66
2022/09/26 07:52:28;;;;;;;22.60;5.00;;;11.20;99.90;;;11.38;100.00;99932.91;4992374;28;20235;-65
2022/09/26 07:55:26;;;;;;;25.95;5.70;;;11.20;99.90;;;11.55;100.00;99934.63;4981351;28;20223;-65
2022/09/26 07:58:05;;;;;;;22.20;5.13;;;11.30;99.90;;;11.54;100.00;99924.03;5009401;28;20219;-65
2022/09/26 08:00:54;;;;;;;27.10;6.03;;;11.40;99.90;;;11.65;100.00;99924.00;4981660;28;20209;-65
2022/09/26 08:03:48;;;;;;;14.52;3.65;;;11.40;99.90;;;11.70;100.00;99923.13;4994124;28;20228;-65
2022/09/26 08:06:32;;;;;;;22.70;5.35;;;11.50;99.90;;;11.83;100.00;99930.16;4998780;28;20207;-66
2022/09/26 08:09:01;;;;;;;23.67;5.35;;;11.60;99.90;;;11.99;100.00;99938.03;4965126;28;20200;-65
2022/09/26 08:11:48;;;;;;;17.42;3.85;;;12.10;99.90;;;11.96;100.00;99924.81;4978185;28;20213;-66
2022/09/26 08:14:34;;;;;;;23.67;5.10;;;11.70;99.90;;;12.23;100.00;99952.94;4970737;28;20220;-65
2022/09/26 08:17:16;;;;;;;19.13;4.22;;;11.90;99.90;;;12.23;100.00;99931.72;4989228;28;20277;-65
2022/09/26 08:19:44;;;;;;;21.90;4.82;;;11.90;99.90;;;12.34;100.00;99943.16;4968158;28;20211;-65
2022/09/26 08:22:13;;;;;;;24.63;5.15;;;12.00;99.90;;;12.35;100.00;99932.53;4973609;28;20220;-65
2022/09/26 08:24:44;;;;;;;26.20;5.68;;;12.10;99.90;;;12.52;100.00;99934.19;4974771;28;20235;-66
2022/09/26 08:27:23;;;;;;;25.33;5.35;;;12.20;99.90;;;12.73;100.00;99950.84;4979590;28;20199;-65
2022/09/26 08:29:53;;;;;;;21.55;5.00;;;12.40;99.90;;;12.78;100.00;99954.34;4993373;28;20206;-66
2022/09/26 08:32:22;;;;;;;29.80;6.40;;;12.40;99.90;;;12.76;100.00;99929.59;5004775;28;20220;-66
2022/09/26 08:34:51;;;;;;;27.20;6.05;;;12.50;99.90;;;12.87;100.00;99940.13;4978082;28;20227;-66
2022/09/26 08:37:41;;;;;;;26.58;6.00;;;12.60;99.90;;;12.60;100.00;99903.19;4990865;28;20197;-65
2022/09/26 08:41:06;;;;;;;21.75;4.70;;;12.50;99.90;;;12.77;100.00;99923.41;4975037;28;20214;-65
2022/09/26 08:44:54;;;;;;;29.58;6.55;;;12.50;99.90;;;13.23;100.00;99938.97;4962889;28;20239;-65
2022/09/26 08:47:52;;;;;;;26.85;5.75;;;12.80;99.90;;;13.39;100.00;99926.41;4970568;28;20215;-65
2022/09/26 08:50:50;;;;;;;23.48;5.07;;;12.90;99.90;;;13.63;100.00;99919.97;4978989;28;20204;-65
2022/09/26 08:53:46;;;;;;;23.20;5.03;;;13.10;99.90;;;13.66;100.00;99888.03;4970899;28;20266;-66
2022/09/26 08:56:30;;;;;;;19.58;4.35;;;13.30;99.90;;;13.51;100.00;99874.94;4987732;28;20208;-66
2022/09/26 08:59:05;;;;;;;26.08;5.95;;;13.30;99.90;;;13.84;100.00;99900.22;4988054;28;20204;-65
2022/09/26 09:01:41;;;;;;;25.50;5.75;;;13.40;99.90;;;13.99;100.00;99895.56;4978018;28;20210;-66
2022/09/26 09:04:51;;;;;;;20.80;4.95;;;13.50;99.90;;;13.56;100.00;99850.06;4964731;28;20227;-65
2022/09/26 09:07:25;;;;;;;20.73;4.55;;;13.50;99.90;;;13.57;100.00;99841.22;4970791;28;20601;-65
2022/09/26 09:10:00;;;;;;;23.52;5.38;;;13.40;99.90;;;13.77;100.00;99865.75;4985940;28;20208;-65
2022/09/26 09:13:01;;;;;;;24.17;5.20;;;13.50;99.90;;;14.43;100.00;99903.88;4969748;28;20235;-65
2022/09/26 09:16:14;;;;;;;28.83;6.55;;;13.80;99.90;;;14.75;100.00;99906.03;4992605;28;20204;-65
2022/09/26 09:19:39;;;;;;;21.17;4.85;;;14.20;99.90;;;14.89;100.00;99874.75;5008236;28;20219;-65
2022/09/26 09:22:46;;;;;;;23.55;5.45;;;14.50;99.90;;;15.12;100.00;99891.19;4991686;28;20651;-65
2022/09/26 09:25:42;;;;;;;22.80;5.28;;;14.70;99.90;;;15.15;100.00;99863.63;4996738;28;20208;-65
2022/09/26 09:28:48;;;;;;;28.00;6.20;;;14.80;99.90;;;14.71;100.00;99806.75;4980965;28;20204;-66
2022/09/26 09:31:16;;;;;;;13.90;4.10;;;14.80;99.90;;;15.12;100.00;99829.06;4989003;28;20201;-66
2022/09/26 09:34:04;;;;;;;18.27;5.10;;;14.90;99.90;;;14.60;100.00;99782.09;4968740;28;20603;-65
2022/09/26 09:37:16;;;;;;;17.25;4.43;;;14.70;99.90;;;14.28;100.00;99767.50;4982580;28;20203;-66
2022/09/26 09:39:59;;;;;;;20.55;5.38;;;14.50;99.90;;;14.24;100.00;99771.13;4977305;28;20200;-65
2022/09/26 09:42:47;;;;;;;20.73;4.68;;;14.40;99.90;;;14.41;100.00;99781.50;4982241;28;20219;-65
2022/09/26 09:45:22;;;;;;;24.70;6.05;;;14.50;99.90;;;14.75;100.00;99829.72;4959125;28;20215;-66
2022/09/26 09:47:51;;;;;;;20.73;4.72;;;14.60;99.90;;;14.70;100.00;99800.53;4978529;28;20204;-65
2022/09/26 09:50:54;;;;;;;23.45;5.38;;;14.70;99.90;;;14.50;100.00;99761.88;4997390;28;20211;-65
2022/09/26 09:53:48;;;;;;;18.85;4.18;;;14.70;99.90;;;14.77;100.00;99788.00;4996459;28;20237;-65
2022/09/26 09:56:31;;;;;;;23.05;5.15;;;14.70;99.90;;;14.78;100.00;99756.94;4978914;28;20211;-66
2022/09/26 09:59:28;;;;;;;24.63;5.40;;;14.90;99.90;;;14.57;100.00;99712.97;4972943;28;20562;-65
2022/09/26 10:02:28;;;;;;;23.95;5.32;;;14.80;99.90;;;14.47;100.00;99730.00;4965644;28;20222;-66
2022/09/26 10:05:22;;;;;;;25.30;5.43;;;14.70;99.90;;;14.68;100.00;99759.78;5006522;28;20220;-65
2022/09/26 10:07:56;;;;;;;22.10;5.20;;;14.80;99.90;;;14.63;100.00;99726.16;4992581;28;20215;-65
2022/09/26 10:11:38;;;;;;;17.65;3.92;;;14.80;99.90;;;14.84;100.00;99738.19;5016127;28;20203;-65
2022/09/26 10:14:54;;;;;;;17.83;4.15;;;15.00;99.90;;;14.68;100.00;99714.53;4969891;28;20236;-65
2022/09/26 10:17:42;;;;;;;27.08;5.93;;;14.90;99.90;;;14.80;100.00;99691.25;4976165;28;20219;-65
2022/09/26 10:20:56;;;;;;;24.40;5.40;;;15.00;99.90;;;14.94;100.00;99707.81;4969896;28;20220;-65
2022/09/26 10:23:35;;;;;;;21.80;5.00;;;15.00;99.90;;;15.27;100.00;99731.06;4971126;28;20224;-66
2022/09/26 10:26:10;;;;;;;25.35;5.55;;;15.10;99.90;;;15.25;100.00;99700.06;4978135;28;20214;-66
2022/09/26 10:28:56;;;;;;;21.55;4.85;;;15.30;99.90;;;15.45;100.00;99736.91;4978786;28;20211;-66
2022/09/26 10:31:36;;;;;;;24.55;5.45;;;15.40;99.90;;;15.27;100.00;99690.25;4959965;28;20690;-65
2022/09/26 10:34:32;;;;;;;25.23;5.32;;;15.40;99.90;;;15.08;100.00;99623.19;4975335;28;20723;-65
2022/09/26 10:37:24;;;;;;;26.30;5.90;;;15.40;99.90;;;15.04;100.00;99649.00;4991384;28;20215;-66
2022/09/26 10:42:47;;;;;;;24.15;5.38;;;15.50;99.90;;;15.98;100.00;99687.75;4982653;28;20213;-65
2022/09/26 10:45:26;;;;;;;24.20;5.43;;;15.90;99.90;;;15.64;100.00;99635.25;4995382;28;20239;-65
2022/09/26 10:48:17;;;;;;;26.00;6.03;;;15.80;99.90;;;15.62;100.00;99646.88;4982814;28;20220;-65
2022/09/26 10:51:06;;;;;;;24.88;5.75;;;15.80;99.90;;;15.60;99.55;99609.59;4991009;28;20215;-65
2022/09/26 10:53:46;;;;;;;22.60;5.15;;;15.80;99.90;;;16.20;98.20;99659.63;4978143;28;20240;-66
2022/09/26 10:56:24;;;;;;;26.77;6.50;;;16.00;99.90;;;17.01;100.00;99747.34;4977453;28;20223;-65
2022/09/26 10:58:59;;;;;;;18.80;4.65;;;16.50;99.90;;;16.13;97.07;99561.13;4987906;28;20203;-65
2022/09/26 11:01:30;;;;;;;30.63;7.03;;;16.40;99.90;;;16.07;99.41;99599.50;4979188;28;20219;-66
2022/09/26 11:05:55;;;;;;;21.48;5.05;;;16.40;99.90;;;16.29;99.86;99638.03;4967187;28;20232;-65
2022/09/26 11:07:38;;;;;;;22.25;5.03;;;16.50;99.90;;;16.25;99.55;99617.69;4976556;28;20208;-65
2022/09/26 11:10:33;;;;;;;16.77;4.00;;;16.50;99.90;;;16.22;98.84;99590.22;4985313;28;20208;-66
2022/09/26 11:13:45;;;;;;;28.52;6.35;;;16.50;99.90;;;16.13;98.20;99564.66;5006504;28;20232;-65
2022/09/26 11:16:17;;;;;;;21.60;4.80;;;16.60;99.90;;;16.10;97.57;99546.09;4998731;28;20212;-65
2022/09/26 11:19:13;;;;;;;20.05;4.68;;;16.50;99.90;;;16.11;93.05;99490.94;4981412;28;20204;-65